createdAt,value
2018-04-16T00:01:17.297Z,49.78
2018-04-16T00:03:46.301Z,43.80
2018-04-16T00:06:15.400Z,49.60
2018-04-16T00:08:44.333Z,48.87
2018-04-16T00:11:13.240Z,55.03
2018-04-16T00:13:42.157Z,51.90
2018-04-16T00:16:11.068Z,62.10
2018-04-16T00:18:40.267Z,59.20
2018-04-16T00:21:09.181Z,56.10
2018-04-16T00:23:38.104Z,50.60
2018-04-16T00:26:07.072Z,39.83
2018-04-16T00:28:35.986Z,56.10
2018-04-16T00:31:04.893Z,63.90
2018-04-16T00:33:48.709Z,56.25
2018-04-16T00:36:17.737Z,55.40
2018-04-16T00:38:52.345Z,67.62
2018-04-16T00:41:27.041Z,81.40
2018-04-16T00:44:01.757Z,84.30
2018-04-16T00:46:36.505Z,86.95
2018-04-16T00:49:11.121Z,92.35
2018-04-16T00:51:45.708Z,87.68
2018-04-16T00:54:23.400Z,82.60
2018-04-16T00:56:58.282Z,124.72
2018-04-16T00:59:33.024Z,96.55
2018-04-16T01:02:07.765Z,114.20
2018-04-16T01:04:42.557Z,92.88
2018-04-16T01:07:17.317Z,79.00
2018-04-16T01:09:52.114Z,90.65
2018-04-16T01:12:26.662Z,79.10
2018-04-16T01:15:01.362Z,89.78
2018-04-16T01:17:35.917Z,84.15
2018-04-16T01:20:10.586Z,75.87
2018-04-16T01:22:45.245Z,71.30
2018-04-16T01:25:20.237Z,73.82
2018-04-16T01:27:54.969Z,89.35
2018-04-16T01:30:39.734Z,85.15
2018-04-16T01:33:14.312Z,85.15
2018-04-16T01:35:48.945Z,69.68
2018-04-16T01:38:23.697Z,72.07
2018-04-16T01:40:58.642Z,52.53
2018-04-16T01:43:33.214Z,70.28
2018-04-16T01:46:07.928Z,68.65
2018-04-16T01:48:42.480Z,67.72
2018-04-16T01:51:17.045Z,69.62
2018-04-16T01:53:51.754Z,76.72
2018-04-16T01:56:26.347Z,68.28
2018-04-16T01:59:00.954Z,56.47
2018-04-16T02:01:35.520Z,54.58
2018-04-16T02:04:10.232Z,52.80
2018-04-16T02:06:44.930Z,55.60
2018-04-16T02:09:19.519Z,59.95
2018-04-16T02:11:54.109Z,62.42
2018-04-16T02:14:28.668Z,49.78
2018-04-16T02:17:03.595Z,57.80
2018-04-16T02:19:38.156Z,51.00
2018-04-16T02:22:25.821Z,59.00
2018-04-16T02:25:00.437Z,70.80
2018-04-16T02:27:35.128Z,63.65
2018-04-16T02:30:09.887Z,70.25
2018-04-16T02:32:44.459Z,85.40
2018-04-16T02:35:19.141Z,65.68
2018-04-16T02:37:53.716Z,55.40
2018-04-16T02:40:28.329Z,59.88
2018-04-16T02:43:03.003Z,55.42
2018-04-16T02:45:37.763Z,49.75
2018-04-16T02:48:12.813Z,76.55
2018-04-16T02:50:47.423Z,52.40
2018-04-16T02:53:22.163Z,42.30
2018-04-16T02:55:56.836Z,34.75
2018-04-16T02:58:40.640Z,51.80
2018-04-16T03:01:15.403Z,40.75
2018-04-16T03:03:50.389Z,47.90
2018-04-16T03:06:24.961Z,50.17
2018-04-16T03:08:59.701Z,43.87
2018-04-16T03:11:34.459Z,55.22
2018-04-16T03:14:09.305Z,59.20
2018-04-16T03:16:43.931Z,52.95
2018-04-16T03:19:18.705Z,45.60
2018-04-16T03:21:53.315Z,61.85
2018-04-16T03:24:28.415Z,44.35
2018-04-16T03:27:03.062Z,51.83
2018-04-16T03:29:37.899Z,60.15
2018-04-16T03:32:12.483Z,61.00
2018-04-16T03:35:00.222Z,68.62
2018-04-16T03:37:34.871Z,60.10
2018-04-16T03:40:09.683Z,59.83
2018-04-16T03:42:44.218Z,58.60
2018-04-16T03:45:19.274Z,62.53
2018-04-16T03:47:53.843Z,57.28
2018-04-16T03:50:28.512Z,62.60
2018-04-16T03:53:03.051Z,67.10
2018-04-16T03:55:34.835Z,76.43
2018-04-16T03:58:03.736Z,66.53
2018-04-16T04:00:32.638Z,73.80
2018-04-16T04:03:01.538Z,59.15
2018-04-16T04:05:30.606Z,71.00
2018-04-16T04:07:59.640Z,55.33
2018-04-16T04:10:28.565Z,57.50
2018-04-16T04:12:57.473Z,53.87
2018-04-16T04:15:26.419Z,48.40
2018-04-16T04:17:55.612Z,42.10
2018-04-16T04:20:24.971Z,48.20
2018-04-16T04:22:59.699Z,39.85
2018-04-16T04:25:34.703Z,38.35
2018-04-16T04:28:09.561Z,38.08
2018-04-16T04:30:38.629Z,35.47
2018-04-16T04:33:07.533Z,41.25
2018-04-16T04:35:36.503Z,37.38
2018-04-16T04:38:05.406Z,52.33
2018-04-16T04:40:34.307Z,31.95
2018-04-16T04:43:03.351Z,45.85
2018-04-16T04:45:32.254Z,37.30
2018-04-16T04:48:01.150Z,30.88
2018-04-16T04:50:30.167Z,37.90
2018-04-16T04:52:59.095Z,32.85
2018-04-16T04:55:27.987Z,37.30
2018-04-16T04:57:56.881Z,47.15
2018-04-16T05:00:25.979Z,40.80
2018-04-16T05:02:55.091Z,37.20
2018-04-16T05:05:23.989Z,61.25
2018-04-16T05:07:52.882Z,42.95
2018-04-16T05:10:21.970Z,48.10
2018-04-16T05:12:51.058Z,47.10
2018-04-16T05:15:19.955Z,50.35
2018-04-16T05:17:48.930Z,44.15
2018-04-16T05:20:17.851Z,31.45
2018-04-16T05:22:46.898Z,43.13
2018-04-16T05:25:15.824Z,29.92
2018-04-16T05:27:44.743Z,20.20
2018-04-16T05:30:13.783Z,32.03
2018-04-16T05:32:42.692Z,25.58
2018-04-16T05:35:11.591Z,27.45
2018-04-16T05:37:40.569Z,27.52
2018-04-16T05:40:09.471Z,26.45
2018-04-16T05:42:38.784Z,26.73
2018-04-16T05:45:07.674Z,29.10
2018-04-16T05:47:36.583Z,25.90
2018-04-16T05:50:05.648Z,22.98
2018-04-16T05:52:34.546Z,25.65
2018-04-16T05:55:03.521Z,32.22
2018-04-16T05:57:32.441Z,24.58
2018-04-16T06:00:01.341Z,25.30
2018-04-16T06:02:30.282Z,20.20
2018-04-16T06:04:59.171Z,28.38
2018-04-16T06:07:28.443Z,22.30
2018-04-16T06:09:57.373Z,27.67
2018-04-16T06:12:26.289Z,24.87
2018-04-16T06:14:55.215Z,23.67
2018-04-16T06:17:24.114Z,29.12
2018-04-16T06:19:53.047Z,44.33
2018-04-16T06:22:21.955Z,37.03
2018-04-16T06:24:50.906Z,42.72
2018-04-16T06:27:20.296Z,41.20
2018-04-16T06:29:49.207Z,38.60
2018-04-16T06:32:18.097Z,36.83
2018-04-16T06:34:47.059Z,39.08
2018-04-16T06:37:15.955Z,36.13
2018-04-16T06:46:30.146Z,34.22
2018-04-16T06:48:59.111Z,26.17
2018-04-16T06:51:28.389Z,30.40
2018-04-16T06:53:57.286Z,31.75
2018-04-16T06:56:26.191Z,32.13
2018-04-16T06:58:55.330Z,32.97
2018-04-16T07:01:24.245Z,29.50
2018-04-16T07:03:53.266Z,29.65
2018-04-16T07:06:22.190Z,24.70
2018-04-16T07:08:51.088Z,30.98
2018-04-16T07:11:20.000Z,29.33
2018-04-16T07:13:49.041Z,30.65
2018-04-16T07:16:17.987Z,33.33
2018-04-16T07:18:46.895Z,31.62
2018-04-16T07:21:15.791Z,18.30
2018-04-16T07:23:44.688Z,28.55
2018-04-16T07:26:13.741Z,23.02
2018-04-16T07:28:42.766Z,34.80
2018-04-16T07:31:11.663Z,23.42
2018-04-16T07:33:40.571Z,26.95
2018-04-16T07:36:09.639Z,26.27
2018-04-16T07:38:38.531Z,25.12
2018-04-16T07:41:07.631Z,19.98
2018-04-16T07:43:36.526Z,29.52
2018-04-16T07:46:05.438Z,27.17
2018-04-16T07:48:34.345Z,25.65
2018-04-16T07:51:03.257Z,21.98
2018-04-16T07:53:32.151Z,32.85
2018-04-16T07:56:01.089Z,18.37
2018-04-16T07:58:29.991Z,21.48
2018-04-16T08:00:59.034Z,18.40
2018-04-16T08:03:27.940Z,28.45
2018-04-16T08:05:56.834Z,25.12
2018-04-16T08:08:25.771Z,16.50
2018-04-16T08:10:54.704Z,18.10
2018-04-16T08:13:23.595Z,25.10
2018-04-16T08:15:52.489Z,15.13
2018-04-16T08:18:21.406Z,30.55
2018-04-16T08:20:50.710Z,20.58
2018-04-16T08:23:19.631Z,17.85
2018-04-16T08:25:48.526Z,21.12
2018-04-16T08:28:17.440Z,20.75
2018-04-16T08:30:46.336Z,23.30
2018-04-16T08:33:15.365Z,19.15
2018-04-16T08:35:44.258Z,23.67
2018-04-16T08:38:13.144Z,19.73
2018-04-16T08:40:42.039Z,20.10
2018-04-16T08:43:10.938Z,18.35
2018-04-16T08:45:39.863Z,18.90
2018-04-16T08:48:08.759Z,19.52
2018-04-16T08:50:37.659Z,23.15
2018-04-16T08:53:06.554Z,21.02
2018-04-16T08:55:35.456Z,25.00
2018-04-16T08:58:04.674Z,17.75
2018-04-16T09:00:33.623Z,20.70
2018-04-16T09:03:02.527Z,19.75
2018-04-16T09:05:31.421Z,17.48
2018-04-16T09:08:00.322Z,19.58
2018-04-16T09:10:29.555Z,20.52
2018-04-16T09:12:58.448Z,21.67
2018-04-16T09:15:27.351Z,15.73
2018-04-16T09:17:56.245Z,13.90
2018-04-16T09:20:25.171Z,11.85
2018-04-16T09:22:54.198Z,10.90
2018-04-16T09:25:23.099Z,15.40
2018-04-16T09:27:51.990Z,15.02
2018-04-16T09:30:20.883Z,13.65
2018-04-16T09:32:49.773Z,22.98
2018-04-16T09:35:18.719Z,22.40
2018-04-16T09:37:47.617Z,18.20
2018-04-16T09:40:16.512Z,13.25
2018-04-16T09:42:45.399Z,20.25
2018-04-16T09:45:14.291Z,11.35
2018-04-16T09:47:43.237Z,11.85
2018-04-16T09:50:12.477Z,18.85
2018-04-16T09:52:42.434Z,17.90
2018-04-16T09:55:11.332Z,45.67
2018-04-16T09:57:40.238Z,14.87
2018-04-16T10:00:09.172Z,22.13
2018-04-16T10:02:43.909Z,16.25
2018-04-16T10:05:12.859Z,24.08
2018-04-16T10:07:41.750Z,14.55
2018-04-16T10:10:10.637Z,13.00
2018-04-16T10:12:39.654Z,14.95
2018-04-16T10:15:08.577Z,13.55
2018-04-16T10:17:37.603Z,18.75
2018-04-16T10:20:06.499Z,10.90
2018-04-16T10:22:35.391Z,17.27
2018-04-16T10:25:04.284Z,22.35
2018-04-16T10:27:33.214Z,14.93
2018-04-16T10:30:02.238Z,24.30
2018-04-16T10:32:31.139Z,15.68
2018-04-16T10:35:00.030Z,20.77
2018-04-16T10:37:28.927Z,15.85
2018-04-16T10:39:57.815Z,15.05
2018-04-16T10:42:26.724Z,11.82
2018-04-16T10:44:55.617Z,24.52
2018-04-16T10:47:24.507Z,19.92
2018-04-16T10:49:53.599Z,20.60
2018-04-16T10:52:22.503Z,16.45
2018-04-16T10:54:51.392Z,17.75
2018-04-16T10:57:20.287Z,13.82
2018-04-16T10:59:49.175Z,10.95
2018-04-16T11:02:18.223Z,17.15
2018-04-16T11:04:47.142Z,12.10
2018-04-16T11:07:16.066Z,13.95
2018-04-16T11:09:44.965Z,18.15
2018-04-16T11:12:13.851Z,13.23
2018-04-16T11:14:42.888Z,16.67
2018-04-16T11:17:11.783Z,13.57
2018-04-16T11:19:40.672Z,12.07
2018-04-16T11:22:09.621Z,11.90
2018-04-16T11:24:38.511Z,13.25
2018-04-16T11:27:07.547Z,11.55
2018-04-16T11:29:36.440Z,9.15
2018-04-16T11:32:05.382Z,16.40
2018-04-16T11:34:34.292Z,14.63
2018-04-16T11:37:03.184Z,11.88
2018-04-16T11:39:32.138Z,8.15
2018-04-16T11:42:01.051Z,12.77
2018-04-16T11:44:29.938Z,11.75
2018-04-16T11:46:59.690Z,8.65
2018-04-16T11:49:28.626Z,12.55
2018-04-16T11:51:57.667Z,5.85
2018-04-16T11:54:26.551Z,9.10
2018-04-16T11:56:55.453Z,8.00
2018-04-16T11:59:24.340Z,6.93
2018-04-16T12:01:53.234Z,14.87
2018-04-16T12:04:22.612Z,16.20
2018-04-16T12:06:51.460Z,15.65
2018-04-16T12:09:20.365Z,13.82
2018-04-16T12:11:49.254Z,17.25
2018-04-16T12:14:18.144Z,10.57
2018-04-16T12:16:47.103Z,9.18
2018-04-16T12:19:16.004Z,11.68
2018-04-16T12:21:44.935Z,9.70
2018-04-16T12:24:13.931Z,13.15
2018-04-16T12:26:42.827Z,14.13
2018-04-16T12:29:11.767Z,15.40
2018-04-16T12:31:40.661Z,12.40
2018-04-16T12:34:09.547Z,11.23
2018-04-16T12:36:38.576Z,22.75
2018-04-16T12:39:07.520Z,9.85
2018-04-16T12:41:36.447Z,10.82
2018-04-16T12:44:05.390Z,12.13
2018-04-16T12:46:34.283Z,7.05
2018-04-16T12:49:03.235Z,15.15
2018-04-16T12:51:32.157Z,10.35
2018-04-16T12:54:01.095Z,6.68
2018-04-16T12:56:30.209Z,11.30
2018-04-16T12:58:59.339Z,16.15
2018-04-16T13:01:28.316Z,8.35
2018-04-16T13:03:57.232Z,11.70
2018-04-16T13:06:26.126Z,13.55
2018-04-16T13:08:55.018Z,10.20
2018-04-16T13:11:24.202Z,8.95
2018-04-16T13:13:53.311Z,9.65
2018-04-16T13:16:22.194Z,8.77
2018-04-16T13:18:51.087Z,14.95
2018-04-16T13:21:19.987Z,6.57
2018-04-16T13:23:48.884Z,8.07
2018-04-16T13:26:18.006Z,8.43
2018-04-16T13:28:46.897Z,7.95
2018-04-16T13:31:15.788Z,13.07
2018-04-16T13:33:45.077Z,8.85
2018-04-16T13:36:13.963Z,8.60
2018-04-16T13:38:42.866Z,8.57
2018-04-16T13:41:11.763Z,5.28
2018-04-16T13:43:40.646Z,5.20
2018-04-16T13:46:09.718Z,11.32
2018-04-16T13:48:38.607Z,6.07
2018-04-16T13:51:07.501Z,13.52
2018-04-16T13:53:36.440Z,4.82
2018-04-16T13:56:05.333Z,6.35
2018-04-16T13:58:34.229Z,6.82
2018-04-16T14:01:03.125Z,7.43
2018-04-16T14:03:32.018Z,7.40
2018-04-16T14:06:00.979Z,6.85
2018-04-16T14:08:29.876Z,8.18
2018-04-16T14:10:58.766Z,4.95
2018-04-16T14:13:27.649Z,5.72
2018-04-16T14:15:56.546Z,13.25
2018-04-16T14:18:25.700Z,6.05
2018-04-16T14:20:54.592Z,6.25
2018-04-16T14:23:23.480Z,5.93
2018-04-16T14:25:52.370Z,9.05
2018-04-16T14:28:21.275Z,5.53
2018-04-16T14:30:50.167Z,5.40
2018-04-16T14:33:19.250Z,4.72
2018-04-16T14:35:48.143Z,4.30
2018-04-16T14:38:17.101Z,6.03
2018-04-16T14:40:45.996Z,6.65
2018-04-16T14:43:14.891Z,5.30
2018-04-16T14:45:43.823Z,4.80
2018-04-16T14:48:12.707Z,7.03
2018-04-16T14:50:41.620Z,6.50
2018-04-16T14:53:10.514Z,4.32
2018-04-16T14:55:39.404Z,8.68
2018-04-16T14:58:08.320Z,6.87
2018-04-16T15:00:37.318Z,5.80
2018-04-16T15:03:06.205Z,4.97
2018-04-16T15:05:35.101Z,6.12
2018-04-16T15:08:03.992Z,7.43
2018-04-16T15:10:33.014Z,6.10
2018-04-16T15:13:01.907Z,7.78
2018-04-16T15:15:30.803Z,16.90
2018-04-16T15:17:59.690Z,3.90
2018-04-16T15:20:28.585Z,5.65
2018-04-16T15:22:57.534Z,11.75
2018-04-16T15:25:26.435Z,4.90
2018-04-16T15:27:55.323Z,3.78
2018-04-16T15:30:24.267Z,16.10
2018-04-16T15:32:53.247Z,4.43
2018-04-16T15:35:22.139Z,5.22
2018-04-16T15:37:51.023Z,6.32
2018-04-16T15:40:19.911Z,7.20
2018-04-16T15:42:48.844Z,7.82
2018-04-16T15:45:17.739Z,11.20
2018-04-16T15:47:46.631Z,4.78
2018-04-16T15:50:15.515Z,4.28
2018-04-16T15:52:44.403Z,5.50
2018-04-16T15:55:13.527Z,4.65
2018-04-16T15:57:42.416Z,8.57
2018-04-16T16:00:11.318Z,10.40
2018-04-16T16:02:40.211Z,15.98
2018-04-16T16:05:09.111Z,10.32
2018-04-16T16:07:38.024Z,4.28
2018-04-16T16:10:06.919Z,16.90
2018-04-16T16:12:35.851Z,20.15
2018-04-16T16:15:04.748Z,5.80
2018-04-16T16:17:33.655Z,5.43
2018-04-16T16:20:02.781Z,5.62
2018-04-16T16:22:31.679Z,3.78
2018-04-16T16:25:00.575Z,12.43
2018-04-16T16:27:29.512Z,8.35
2018-04-16T16:29:58.403Z,4.90
2018-04-16T16:32:27.499Z,8.73
2018-04-16T16:34:56.420Z,10.32
2018-04-16T16:37:25.362Z,4.18
2018-04-16T16:39:54.283Z,20.35
2018-04-16T16:42:23.197Z,3.80
2018-04-16T16:44:52.111Z,7.28
2018-04-16T16:47:21.031Z,6.68
2018-04-16T16:49:49.918Z,6.60
2018-04-16T16:52:18.811Z,7.68
2018-04-16T16:54:48.062Z,5.43
2018-04-16T16:57:16.959Z,3.45
2018-04-16T16:59:45.953Z,4.68
2018-04-16T17:02:14.836Z,9.10
2018-04-16T17:04:43.720Z,4.45
2018-04-16T17:07:12.635Z,5.53
2018-04-16T17:09:41.544Z,25.62
2018-04-16T17:12:10.734Z,5.82
2018-04-16T17:14:39.637Z,3.10
2018-04-16T17:17:08.530Z,10.73
2018-04-16T17:19:37.459Z,4.90
2018-04-16T17:22:06.353Z,6.12
2018-04-16T17:24:35.235Z,5.43
2018-04-16T17:27:04.143Z,6.57
2018-04-16T17:29:33.027Z,6.30
2018-04-16T17:32:01.975Z,5.18
2018-04-16T17:34:30.998Z,5.20
2018-04-16T17:36:59.885Z,6.60
2018-04-16T17:39:28.784Z,4.32
2018-04-16T17:41:57.769Z,11.68
2018-04-16T17:44:26.667Z,10.10
2018-04-16T17:46:55.819Z,6.65
2018-04-16T17:49:24.756Z,4.82
2018-04-16T17:51:53.723Z,9.93
2018-04-16T17:54:22.611Z,12.15
2018-04-16T17:56:51.511Z,15.48
2018-04-16T17:59:20.422Z,4.85
2018-04-16T18:01:49.554Z,4.55
2018-04-16T18:04:18.447Z,5.45
2018-04-16T18:06:47.355Z,9.18
2018-04-16T18:09:16.251Z,6.70
2018-04-16T18:11:45.155Z,6.15
2018-04-16T18:14:14.104Z,7.15
2018-04-16T18:16:42.999Z,5.62
2018-04-16T18:19:11.894Z,4.03
2018-04-16T18:21:40.920Z,3.47
2018-04-16T18:24:09.817Z,20.40
2018-04-16T18:26:38.721Z,7.07
2018-04-16T18:29:07.643Z,6.05
2018-04-16T18:31:36.535Z,22.50
2018-04-16T18:34:05.453Z,16.42
2018-04-16T18:36:34.485Z,8.90
2018-04-16T18:39:03.374Z,6.82
2018-04-16T18:41:32.483Z,37.03
2018-04-16T18:44:01.360Z,8.23
2018-04-16T18:46:30.267Z,7.65
2018-04-16T18:48:59.203Z,11.15
2018-04-16T18:51:28.097Z,13.35
2018-04-16T18:53:57.021Z,14.68
2018-04-16T18:56:25.954Z,20.85
2018-04-16T18:58:54.859Z,14.87
2018-04-16T19:01:23.803Z,15.13
2018-04-16T19:03:52.698Z,11.23
2018-04-16T19:06:21.636Z,14.77
2018-04-16T19:08:50.758Z,16.70
2018-04-16T19:11:19.663Z,15.48
2018-04-16T19:13:48.551Z,11.82
2018-04-16T19:16:17.551Z,20.37
2018-04-16T19:18:46.444Z,27.25
2018-04-16T19:21:21.426Z,11.18
2018-04-16T19:23:50.314Z,33.55
2018-04-16T19:26:19.215Z,20.10
2018-04-16T19:28:48.112Z,25.40
2018-04-16T19:31:16.999Z,29.87
2018-04-16T19:33:51.619Z,22.92
2018-04-16T19:36:20.551Z,16.33
2018-04-16T19:38:49.443Z,13.35
2018-04-16T19:41:18.350Z,16.65
2018-04-16T19:43:47.246Z,17.17
2018-04-16T19:46:16.221Z,11.52
2018-04-16T19:48:50.971Z,21.55
2018-04-16T19:51:20.175Z,24.98
2018-04-16T19:53:53.514Z,58.45
2018-04-16T19:56:28.134Z,63.35
2018-04-16T19:58:57.043Z,51.00
2018-04-16T20:01:26.220Z,70.68
2018-04-16T20:03:59.895Z,64.05
2018-04-16T20:06:28.795Z,51.80
2018-04-16T20:08:58.023Z,49.55
2018-04-16T20:11:27.090Z,62.08
2018-04-16T20:13:55.987Z,25.75
2018-04-16T20:16:24.906Z,21.17
2018-04-16T20:18:53.804Z,21.60
2018-04-16T20:21:22.783Z,25.35
2018-04-16T20:23:51.693Z,21.92
2018-04-16T20:26:20.587Z,27.17
2018-04-16T20:28:49.526Z,9.50
2018-04-16T20:31:18.423Z,15.68
2018-04-16T20:33:47.348Z,24.00
2018-04-16T20:36:16.631Z,25.60
2018-04-16T20:38:45.515Z,11.30
2018-04-16T20:41:14.403Z,27.17
2018-04-16T20:43:43.291Z,18.58
2018-04-16T20:46:12.179Z,29.15
2018-04-16T20:48:41.099Z,14.13
2018-04-16T20:51:09.996Z,15.15
2018-04-16T20:53:38.887Z,19.52
2018-04-16T20:56:07.807Z,30.00
2018-04-16T20:58:36.731Z,20.62
2018-04-16T21:01:05.741Z,20.75
2018-04-16T21:03:34.650Z,17.00
2018-04-16T21:06:03.530Z,21.35
2018-04-16T21:08:32.805Z,34.10
2018-04-16T21:11:01.685Z,30.12
2018-04-16T21:13:30.604Z,28.30
2018-04-16T21:15:59.466Z,17.60
2018-04-16T21:18:28.339Z,17.67
2018-04-16T21:20:57.437Z,19.90
2018-04-16T21:23:26.330Z,19.67
2018-04-16T21:25:55.214Z,13.45
2018-04-16T21:28:24.108Z,23.73
2018-04-16T21:30:53.057Z,21.35
2018-04-16T21:33:21.976Z,12.88
2018-04-16T21:35:50.869Z,23.15
2018-04-16T21:38:19.749Z,43.83
2018-04-16T21:40:49.029Z,26.30
2018-04-16T21:43:17.929Z,31.45
2018-04-16T21:45:46.813Z,29.10
2018-04-16T21:48:15.724Z,23.50
2018-04-16T21:50:44.619Z,28.38
2018-04-16T21:53:13.486Z,29.33
2018-04-16T21:55:42.375Z,24.45
2018-04-16T21:58:11.269Z,18.87
2018-04-16T22:00:40.529Z,39.80
2018-04-16T22:03:09.476Z,44.63
2018-04-16T22:05:38.342Z,27.45
2018-04-16T22:08:07.269Z,47.78
2018-04-16T22:10:36.209Z,38.85
2018-04-16T22:13:05.099Z,26.12
2018-04-16T22:15:33.973Z,22.80
2018-04-16T22:18:02.839Z,33.38
2018-04-16T22:20:32.036Z,28.15
2018-04-16T22:23:01.022Z,26.40
2018-04-16T22:25:29.887Z,24.40
2018-04-16T22:27:58.769Z,29.37
2018-04-16T22:30:27.661Z,39.10
2018-04-16T22:32:56.598Z,19.52
2018-04-16T22:35:25.477Z,30.17
2018-04-16T22:37:54.381Z,17.02
2018-04-16T22:40:23.270Z,29.15
2018-04-16T22:42:52.187Z,22.08
2018-04-16T22:45:21.141Z,17.33
2018-04-16T22:47:50.039Z,21.52
2018-04-16T22:50:19.213Z,16.45
2018-04-16T22:52:48.103Z,13.52
2018-04-16T22:55:17.039Z,14.32
2018-04-16T22:57:46.281Z,22.62
2018-04-16T23:00:15.172Z,19.55
2018-04-16T23:02:44.075Z,21.42
2018-04-16T23:05:12.962Z,21.17
2018-04-16T23:07:41.846Z,20.33
2018-04-16T23:10:10.913Z,30.60
2018-04-16T23:12:39.837Z,28.87
2018-04-16T23:15:08.753Z,12.80
2018-04-16T23:17:37.674Z,25.10
2018-04-16T23:20:06.568Z,18.48
2018-04-16T23:22:35.463Z,24.35
2018-04-16T23:25:04.355Z,25.58
2018-04-16T23:27:33.242Z,27.02
2018-04-16T23:30:02.307Z,22.48
2018-04-16T23:32:31.195Z,18.42
2018-04-16T23:35:00.119Z,13.82
2018-04-16T23:37:29.311Z,17.75
2018-04-16T23:39:58.208Z,13.13
2018-04-16T23:42:27.099Z,11.48
2018-04-16T23:44:56.527Z,20.08
2018-04-16T23:47:25.481Z,16.23
2018-04-16T23:49:54.593Z,21.35
2018-04-16T23:52:23.487Z,11.02
2018-04-16T23:54:52.387Z,14.93
2018-04-16T23:57:21.302Z,14.30
2018-04-16T23:59:50.208Z,15.30
